Time;durP1;ratioP1;P1;durP2;ratioP2;P2;SDS_P1;SDS_P2;PMS_P1;PMS_P2;Temp;Humidity;BMP_temperature;BMP_pressure;BME280_temperature;BME280_humidity;BME280_pressure;Samples;Min_cycle;Max_cycle;Signal;HPM_P1;HPM_P2
2022/12/03 00:00:26;;;;;;;;;13.00;7.75;;;;;20.28;41.16;101800.66;4948866;28;1377933;-73
2022/12/03 00:02:51;;;;;;;;;12.75;8.25;;;;;20.29;40.97;101789.94;5015082;28;45553;-72
2022/12/03 00:05:17;;;;;;;;;13.50;9.75;;;;;20.24;40.89;101784.25;5015226;28;45827;-72
2022/12/03 00:07:42;;;;;;;;;13.75;11.50;;;;;20.29;40.83;101789.94;5015183;28;45429;-72
2022/12/03 00:10:08;;;;;;;;;9.75;9.75;;;;;20.27;41.18;101775.22;5015091;28;45344;-74
2022/12/03 00:12:34;;;;;;;;;16.75;10.00;;;;;20.29;41.13;101784.66;5014894;28;45388;-73
2022/12/03 00:14:59;;;;;;;;;8.00;8.00;;;;;20.24;41.08;101794.00;5014806;28;45432;-73
2022/12/03 00:17:24;;;;;;;;;10.50;8.50;;;;;20.21;41.03;101779.25;5015013;28;45384;-73
2022/12/03 00:19:49;;;;;;;;;11.50;7.75;;;;;20.29;40.97;101781.19;5015087;28;45427;-73
2022/12/03 00:22:15;;;;;;;;;8.00;8.00;;;;;20.29;41.04;101792.59;5015105;28;45406;-73
2022/12/03 00:24:40;;;;;;;;;10.50;8.50;;;;;20.25;40.89;101777.97;5014856;28;46331;-73
2022/12/03 00:27:05;;;;;;;;;8.50;8.25;;;;;20.27;40.91;101781.31;5013651;28;53211;-73
2022/12/03 00:29:31;;;;;;;;;10.00;10.00;;;;;20.27;40.79;101783.16;5014967;28;45320;-73
2022/12/03 00:31:56;;;;;;;;;11.25;8.50;;;;;20.26;40.80;101779.66;5015108;28;45252;-73
2022/12/03 00:34:21;;;;;;;;;10.50;8.75;;;;;20.18;40.99;101772.47;4996964;28;46212;-73
2022/12/03 00:36:47;;;;;;;;;10.25;9.50;;;;;20.27;40.84;101783.16;5014785;28;45390;-73
2022/12/03 00:39:13;;;;;;;;;12.50;11.25;;;;;20.26;40.59;101782.31;5014619;28;45394;-73
2022/12/03 00:41:38;;;;;;;;;10.75;8.50;;;;;20.26;40.91;101799.97;5014392;28;45479;-73
2022/12/03 00:44:03;;;;;;;;;8.75;8.75;;;;;20.22;40.73;101780.91;5014548;28;48902;-73
2022/12/03 00:46:29;;;;;;;;;11.50;9.75;;;;;20.26;40.72;101792.88;5014764;28;45331;-73
2022/12/03 00:48:54;;;;;;;;;11.00;8.50;;;;;20.25;40.77;101785.91;5016615;28;45382;-73
2022/12/03 00:51:19;;;;;;;;;12.00;11.25;;;;;20.26;41.01;101784.09;5018134;28;45374;-73
2022/12/03 00:53:45;;;;;;;;;12.00;11.50;;;;;20.25;40.88;101777.97;5017913;28;46118;-73
2022/12/03 00:56:10;;;;;;;;;14.50;10.75;;;;;20.23;40.90;101776.47;5017590;28;45327;-73
2022/12/03 00:58:35;;;;;;;;;9.75;9.00;;;;;20.26;40.85;101771.72;5017927;28;45412;-73
2022/12/03 01:01:01;;;;;;;;;9.25;9.00;;;;;20.18;40.97;101761.88;5017906;28;45347;-73
2022/12/03 01:03:26;;;;;;;;;11.50;9.00;;;;;20.22;41.08;101777.47;5017744;28;46387;-73
2022/12/03 01:05:52;;;;;;;;;13.25;9.25;;;;;20.26;40.63;101771.72;5017966;28;45371;-73
2022/12/03 01:08:17;;;;;;;;;9.75;8.50;;;;;20.25;40.60;101763.94;5017990;28;45423;-72
2022/12/03 01:10:42;;;;;;;;;9.25;7.50;;;;;20.20;40.44;101752.97;5017538;28;45485;-73
2022/12/03 01:13:08;;;;;;;;;10.50;8.00;;;;;20.25;40.78;101758.66;5017830;28;45336;-73
2022/12/03 01:15:33;;;;;;;;;10.00;8.50;;;;;20.28;40.83;101768.94;5017563;28;45305;-73
2022/12/03 01:17:58;;;;;;;;;12.25;12.00;;;;;20.24;40.58;101757.00;5017752;28;45447;-73
2022/12/03 01:20:24;;;;;;;;;12.50;9.25;;;;;20.25;40.76;101758.66;5017651;28;45304;-72
2022/12/03 01:22:49;;;;;;;;;12.50;10.75;;;;;20.29;40.51;101765.31;5012380;28;46057;-72
2022/12/03 01:25:15;;;;;;;;;12.00;8.00;;;;;20.27;40.59;101767.28;5005893;28;45272;-72
2022/12/03 01:27:40;;;;;;;;;10.50;9.25;;;;;20.31;40.63;101765.16;4997612;28;45476;-71
2022/12/03 01:30:07;;;;;;;;;11.00;10.00;;;;;20.30;40.91;101769.63;4997798;28;45447;-72
2022/12/03 01:32:32;;;;;;;;;10.75;9.00;;;;;20.30;40.49;101766.97;4997529;28;46376;-71
2022/12/03 01:34:58;;;;;;;;;9.25;9.25;;;;;20.29;40.66;101766.16;4997452;28;45323;-71
2022/12/03 01:37:25;;;;;;;;;14.50;11.50;;;;;20.19;40.57;101749.50;5009631;28;45341;-71
2022/12/03 01:39:50;;;;;;;;;14.25;10.25;;;;;20.29;40.76;101775.91;5016838;28;45376;-70
2022/12/03 01:42:20;;;;;;;;;12.75;9.50;;;;;20.28;40.78;101769.78;5017108;28;45370;-73
2022/12/03 01:44:45;;;;;;;;;10.75;9.00;;;;;20.16;40.38;101784.16;5017102;28;45419;-72
2022/12/03 01:47:17;;;;;;;;;10.75;9.00;;;;;20.26;40.78;101768.25;5017289;28;45313;-71
2022/12/03 01:49:50;;;;;;;;;10.25;9.25;;;;;20.27;40.75;101778.66;5017302;28;45423;-73
2022/12/03 01:52:19;;;;;;;;;8.75;8.50;;;;;20.27;40.45;101781.31;5016909;28;46149;-73
2022/12/03 01:54:49;;;;;;;;;11.75;11.75;;;;;20.27;40.66;101781.31;5016507;28;45426;-70
2022/12/03 01:57:25;;;;;;;;;13.75;11.75;;;;;20.27;40.71;101789.22;5017168;28;45398;-72
2022/12/03 01:59:52;;;;;;;;;8.75;7.00;;;;;20.27;40.63;101777.84;5015598;28;45311;-72
2022/12/03 02:02:29;;;;;;;;;8.25;7.50;;;;;20.26;40.80;101779.66;5016709;28;45375;-72
2022/12/03 02:04:55;;;;;;;;;12.25;10.50;;;;;20.15;40.84;101754.25;5016869;28;45381;-72
2022/12/03 02:07:31;;;;;;;;;9.50;8.50;;;;;20.21;40.70;101766.06;4998784;28;45475;-72
2022/12/03 02:10:00;;;;;;;;;12.50;11.00;;;;;20.25;40.59;101772.69;5016979;28;45368;-72
2022/12/03 02:12:53;;;;;;;;;14.50;12.00;;;;;20.25;40.64;101775.34;5016670;28;47133;-72
2022/12/03 02:15:19;;;;;;;;;13.25;9.50;;;;;20.15;40.85;101745.47;5016543;28;45357;-72
2022/12/03 02:17:44;;;;;;;;;11.75;7.25;;;;;20.17;40.50;101754.09;5016713;28;45449;-72
2022/12/03 02:20:11;;;;;;;;;13.00;11.75;;;;;20.25;40.43;101769.22;5016739;28;45447;-72
2022/12/03 02:22:45;;;;;;;;;14.50;10.25;;;;;20.24;40.70;101757.84;5014882;28;47203;-72
2022/12/03 02:25:13;;;;;;;;;9.25;9.25;;;;;20.25;40.64;101762.13;5016543;28;45359;-72
2022/12/03 02:27:39;;;;;;;;;10.75;9.50;;;;;20.25;40.41;101759.47;5016488;28;45364;-72
2022/12/03 02:30:06;;;;;;;;;11.00;9.00;;;;;20.25;40.48;101759.47;5016524;28;45374;-72
2022/12/03 02:32:32;;;;;;;;;12.50;11.50;;;;;20.27;40.31;101759.34;4998517;28;47660;-71
2022/12/03 02:34:57;;;;;;;;;11.50;10.00;;;;;20.27;40.41;101759.34;5016348;28;45290;-71
2022/12/03 02:37:29;;;;;;;;;10.75;10.50;;;;;20.27;40.59;101756.72;5015999;28;45316;-72
2022/12/03 02:39:58;;;;;;;;;18.25;12.00;;;;;20.27;40.71;101752.25;5016375;28;45444;-72
2022/12/03 02:42:36;;;;;;;;;12.50;12.50;;;;;20.28;40.47;101753.06;5016096;28;46394;-72
2022/12/03 02:45:06;;;;;;;;;10.75;10.75;;;;;20.28;40.44;101758.34;5016234;28;45429;-71
2022/12/03 02:47:35;;;;;;;;;13.00;12.00;;;;;20.23;40.23;101752.69;5016300;28;45400;-73
2022/12/03 02:50:01;;;;;;;;;11.50;10.00;;;;;20.27;40.57;101765.44;5016159;28;45432;-72
2022/12/03 02:52:27;;;;;;;;;7.25;4.75;;;;;20.26;40.85;101755.03;5015890;28;46463;-72
2022/12/03 02:54:53;;;;;;;;;14.75;11.25;;;;;20.28;40.57;101761.00;4997997;28;45834;-72
2022/12/03 02:57:19;;;;;;;;;0.00;0.00;;;;;20.27;40.51;101752.25;5016422;28;45354;-71
2022/12/03 02:59:44;;;;;;;;;10.50;10.00;;;;;20.27;40.33;101748.78;5015861;28;45236;-72
2022/12/03 03:02:12;;;;;;;;;14.00;11.00;;;;;20.27;40.37;101749.59;5015933;28;46141;-72
2022/12/03 03:04:38;;;;;;;;;11.00;9.25;;;;;20.26;40.31;101753.22;5015922;28;45288;-71
2022/12/03 03:07:04;;;;;;;;;11.00;11.00;;;;;20.25;40.55;101748.06;5015765;28;45410;-72
2022/12/03 03:09:30;;;;;;;;;13.00;10.75;;;;;20.26;40.46;101750.59;5015900;28;45329;-72
2022/12/03 03:11:55;;;;;;;;;13.75;12.25;;;;;20.26;40.38;101750.59;5015431;28;45993;-72
2022/12/03 03:14:20;;;;;;;;;10.00;10.00;;;;;20.26;40.46;101747.94;5015841;28;45347;-72
2022/12/03 03:16:54;;;;;;;;;12.50;10.50;;;;;20.27;40.54;101754.06;5015951;28;45802;-71
2022/12/03 03:19:27;;;;;;;;;11.00;10.50;;;;;20.25;40.56;101754.19;5015836;28;45423;-72
2022/12/03 03:21:53;;;;;;;;;10.50;10.50;;;;;20.24;40.32;101749.91;5015345;28;46117;-72
2022/12/03 03:24:19;;;;;;;;;14.25;10.25;;;;;20.26;40.51;101747.09;5015581;28;45475;-72
2022/12/03 03:26:45;;;;;;;;;15.75;11.50;;;;;20.25;40.32;101750.72;5015710;28;45287;-72
2022/12/03 03:29:10;;;;;;;;;12.00;11.00;;;;;20.23;40.60;101750.88;5015485;28;45283;-72
2022/12/03 03:31:37;;;;;;;;;14.00;9.50;;;;;20.21;40.59;101733.50;5015655;28;45343;-72
2022/12/03 03:34:02;;;;;;;;;12.00;10.00;;;;;20.24;40.40;101746.44;5015554;28;45340;-72
2022/12/03 03:36:28;;;;;;;;;9.50;9.50;;;;;20.24;40.64;101736.69;5015341;28;45340;-72
2022/12/03 03:38:53;;;;;;;;;13.50;12.25;;;;;20.22;40.74;101735.19;5015373;28;45538;-73
2022/12/03 03:41:20;;;;;;;;;7.25;6.25;;;;;20.17;40.34;101722.38;5015452;28;45856;-72
2022/12/03 03:43:48;;;;;;;;;12.00;11.00;;;;;20.24;40.38;101735.88;5015586;28;45363;-70
2022/12/03 03:46:14;;;;;;;;;12.25;10.50;;;;;20.24;40.37;101739.34;5015599;28;45582;-72
2022/12/03 03:48:42;;;;;;;;;12.25;10.25;;;;;20.20;40.18;101729.19;5015361;28;45312;-72
2022/12/03 03:51:09;;;;;;;;;14.50;12.00;;;;;20.25;40.60;101735.69;5014826;28;46288;-72
2022/12/03 03:53:41;;;;;;;;;9.75;9.75;;;;;20.22;40.18;101722.78;5015046;28;45553;-72
2022/12/03 03:56:08;;;;;;;;;12.50;9.50;;;;;20.22;40.18;101733.34;5015333;28;45359;-72
2022/12/03 03:58:34;;;;;;;;;12.75;9.50;;;;;20.25;40.10;101732.22;5015185;28;45803;-72
2022/12/03 04:01:00;;;;;;;;;13.25;10.50;;;;;20.25;40.17;101733.06;5014862;28;46226;-72
2022/12/03 04:03:26;;;;;;;;;10.00;10.00;;;;;20.26;40.29;101728.63;5014636;28;45548;-72
2022/12/03 04:05:51;;;;;;;;;12.00;11.00;;;;;20.26;40.23;101734.75;5015379;28;45352;-72
2022/12/03 04:08:17;;;;;;;;;12.25;11.75;;;;;20.27;40.41;101730.28;5015167;28;45510;-72
2022/12/03 04:13:26;;;;;;;;;11.00;10.50;;;;;20.28;40.19;101740.69;5015188;28;45499;-72
2022/12/03 04:15:51;;;;;;;;;12.50;11.25;;;;;20.28;40.36;101740.69;5015235;28;45346;-72
2022/12/03 04:23:44;;;;;;;;;10.25;8.75;;;;;20.17;39.98;101727.66;5016773;28;45345;-71
2022/12/03 04:28:54;;;;;;;;;14.75;12.00;;;;;20.25;40.16;101724.28;5018524;28;45288;-72
2022/12/03 04:36:47;;;;;;;;;11.25;9.25;;;;;20.25;40.20;101714.56;5018356;28;45288;-71
2022/12/03 04:39:12;;;;;;;;;13.75;10.50;;;;;20.25;40.48;101713.72;5000273;28;45608;-72
2022/12/03 04:41:37;;;;;;;;;12.00;9.50;;;;;20.20;40.19;101708.88;5018129;28;45415;-72
2022/12/03 04:46:47;;;;;;;;;11.00;10.00;;;;;20.24;40.12;101699.69;5017955;28;45332;-70
2022/12/03 04:49:12;;;;;;;;;16.75;13.25;;;;;20.23;40.32;101703.31;5018080;28;45638;-72
2022/12/03 04:51:37;;;;;;;;;10.00;10.00;;;;;20.25;40.45;101711.06;5017823;28;47010;-72
2022/12/03 04:54:03;;;;;;;;;11.25;10.25;;;;;20.25;40.52;101703.16;5017745;28;47998;-72
2022/12/03 04:56:28;;;;;;;;;13.25;10.25;;;;;20.23;40.39;101700.66;5018225;28;45347;-72
2022/12/03 04:58:53;;;;;;;;;10.75;9.25;;;;;20.22;40.25;101699.00;5017440;28;49210;-72
2022/12/03 05:01:18;;;;;;;;;13.50;11.75;;;;;20.16;40.42;101683.75;5017612;28;46132;-72
2022/12/03 05:03:44;;;;;;;;;12.50;9.75;;;;;20.22;40.17;101693.72;5017869;28;45284;-73
2022/12/03 05:06:09;;;;;;;;;11.25;9.00;;;;;20.22;40.17;101693.72;5017959;28;45283;-73
2022/12/03 05:08:34;;;;;;;;;13.00;10.50;;;;;20.23;40.17;101695.38;5017348;28;45466;-72
2022/12/03 05:11:00;;;;;;;;;14.50;12.25;;;;;20.23;40.20;101699.84;5017729;28;46754;-72
2022/12/03 05:13:25;;;;;;;;;11.00;9.25;;;;;20.22;40.15;101698.19;5017749;28;45458;-70
2022/12/03 05:15:50;;;;;;;;;12.25;11.25;;;;;20.23;40.22;101690.09;5017356;28;45355;-72
2022/12/03 05:18:16;;;;;;;;;12.50;10.00;;;;;20.23;40.39;101695.38;5017625;28;45435;-73
2022/12/03 05:20:41;;;;;;;;;11.75;9.75;;;;;20.23;39.91;101699.84;5017544;28;47089;-73
2022/12/03 05:23:08;;;;;;;;;10.00;9.00;;;;;20.21;40.32;101692.06;5017545;28;45418;-71
2022/12/03 05:25:33;;;;;;;;;14.25;11.50;;;;;20.23;40.05;101698.03;5017633;28;45392;-71
2022/12/03 05:27:58;;;;;;;;;11.50;11.25;;;;;20.24;40.23;101693.56;5017395;28;45387;-70
2022/12/03 05:30:24;;;;;;;;;10.00;10.00;;;;;20.23;40.01;101691.91;5017065;28;46299;-72
2022/12/03 05:32:49;;;;;;;;;12.00;11.00;;;;;20.18;39.85;101677.34;5017369;28;45511;-73
2022/12/03 05:35:15;;;;;;;;;11.75;10.75;;;;;20.14;40.05;101665.38;5017568;28;45584;-72
2022/12/03 05:37:40;;;;;;;;;14.50;12.25;;;;;20.25;39.94;101682.00;4999408;28;45363;-73
2022/12/03 05:40:06;;;;;;;;;10.75;10.75;;;;;20.25;40.26;101679.38;5017151;28;46966;-70
2022/12/03 05:45:16;;;;;;;;;12.75;10.25;;;;;20.25;40.17;101674.91;5017041;28;45431;-70
2022/12/03 05:47:41;;;;;;;;;11.00;9.00;;;;;20.26;39.96;101683.69;5017120;28;45315;-71
2022/12/03 05:50:07;;;;;;;;;11.25;9.25;;;;;20.26;40.36;101678.41;5017164;28;45330;-70
2022/12/03 05:52:32;;;;;;;;;10.75;10.75;;;;;20.26;40.17;101679.25;5017064;28;45578;-73
2022/12/03 05:54:57;;;;;;;;;9.50;7.75;;;;;20.23;39.91;101676.88;5017067;28;45741;-71
2022/12/03 05:57:23;;;;;;;;;13.50;11.25;;;;;20.26;40.14;101678.41;5017089;28;45413;-72
2022/12/03 05:59:48;;;;;;;;;12.00;9.50;;;;;20.26;40.04;101673.13;5016294;28;46120;-72
2022/12/03 06:02:13;;;;;;;;;10.75;9.00;;;;;20.25;40.48;101674.91;5016914;28;45398;-73
2022/12/03 06:04:39;;;;;;;;;8.75;8.75;;;;;20.25;39.99;101679.38;5017080;28;45400;-72
2022/12/03 06:07:04;;;;;;;;;9.75;8.75;;;;;20.24;40.14;101678.56;4999226;28;45514;-73
2022/12/03 06:09:29;;;;;;;;;9.50;9.50;;;;;20.24;39.88;101672.44;5016614;28;47783;-72
2022/12/03 06:11:55;;;;;;;;;11.00;8.00;;;;;20.24;40.18;101681.22;5016887;28;45364;-73
2022/12/03 06:14:20;;;;;;;;;12.75;9.00;;;;;20.25;40.07;101679.38;5016598;28;45433;-72
2022/12/03 06:16:46;;;;;;;;;13.75;10.75;;;;;20.23;40.17;101676.88;5016715;28;45525;-73
2022/12/03 06:19:11;;;;;;;;;9.00;8.00;;;;;20.19;40.40;101691.38;5016567;28;46137;-73
2022/12/03 06:21:36;;;;;;;;;9.00;9.00;;;;;20.23;40.13;101686.63;5016586;28;45363;-73
2022/12/03 06:24:02;;;;;;;;;11.75;10.50;;;;;20.23;40.00;101681.34;5016759;28;45335;-70
2022/12/03 06:26:28;;;;;;;;;10.00;8.00;;;;;20.22;40.14;101684.97;5016790;28;45394;-72
2022/12/03 06:28:54;;;;;;;;;12.00;9.50;;;;;20.11;40.17;101663.03;5016083;28;46368;-72
2022/12/03 06:31:19;;;;;;;;;9.50;9.00;;;;;20.22;40.04;101684.97;5016537;28;45379;-72
2022/12/03 06:33:44;;;;;;;;;10.25;8.25;;;;;20.13;40.06;101666.38;5016605;28;45364;-72
2022/12/03 06:36:10;;;;;;;;;14.00;9.00;;;;;20.22;40.26;101679.69;5016588;28;45294;-72
2022/12/03 06:38:35;;;;;;;;;12.75;10.50;;;;;20.20;40.20;101669.25;5016036;28;47264;-72
2022/12/03 06:41:00;;;;;;;;;14.00;10.00;;;;;20.20;40.11;101677.19;5016393;28;45353;-72
2022/12/03 06:43:26;;;;;;;;;13.25;10.75;;;;;20.18;40.08;101665.94;5016245;28;45288;-72
2022/12/03 06:45:51;;;;;;;;;9.75;9.00;;;;;20.20;39.86;101686.91;5015863;28;45363;-72
2022/12/03 06:48:17;;;;;;;;;11.25;10.25;;;;;20.18;40.16;101672.06;5016077;28;46089;-72
2022/12/03 06:50:42;;;;;;;;;8.75;8.75;;;;;20.20;39.89;101676.34;5016243;28;45411;-72
2022/12/03 06:53:07;;;;;;;;;10.00;8.75;;;;;20.20;39.94;101682.47;4998476;28;45369;-72
2022/12/03 06:55:33;;;;;;;;;16.25;12.25;;;;;20.18;39.92;101665.94;5016261;28;45563;-71
2022/12/03 06:57:58;;;;;;;;;13.25;12.00;;;;;20.14;40.12;101665.38;5015761;28;46399;-71
2022/12/03 07:00:24;;;;;;;;;12.00;10.75;;;;;20.19;40.04;101664.97;4997971;28;45406;-73
2022/12/03 07:02:49;;;;;;;;;11.75;9.25;;;;;20.20;40.71;101668.41;5016361;28;45373;-73
2022/12/03 07:05:14;;;;;;;;;9.50;9.50;;;;;20.20;40.11;101666.59;5016077;28;45378;-73
2022/12/03 07:07:40;;;;;;;;;11.00;10.75;;;;;20.17;40.20;101665.09;5015810;28;46161;-73
2022/12/03 07:10:06;;;;;;;;;15.25;12.75;;;;;20.20;40.20;101677.19;5015671;28;53192;-72
2022/12/03 07:12:31;;;;;;;;;14.00;10.50;;;;;20.15;39.83;101676.78;5015701;28;45344;-71
2022/12/03 07:14:57;;;;;;;;;14.00;12.75;;;;;20.16;40.09;101676.66;5015942;28;45352;-72
2022/12/03 07:17:22;;;;;;;;;12.25;10.00;;;;;20.07;39.87;101651.06;5015494;28;46249;-73
2022/12/03 07:19:47;;;;;;;;;12.25;10.00;;;;;20.21;39.98;101700.00;5015565;28;48527;-72
2022/12/03 07:22:13;;;;;;;;;10.25;8.75;;;;;20.21;39.77;101683.28;5016152;28;45430;-73
2022/12/03 07:24:38;;;;;;;;;13.50;13.25;;;;;20.22;39.79;101682.34;5015928;28;45392;-73
2022/12/03 07:27:03;;;;;;;;;11.50;11.50;;;;;20.21;39.63;101689.41;5015417;28;45983;-72
2022/12/03 07:29:29;;;;;;;;;9.25;9.25;;;;;20.16;39.66;101681.09;5015549;28;45400;-72
2022/12/03 07:31:54;;;;;;;;;12.00;9.25;;;;;20.23;39.82;101692.75;5015881;28;45394;-72
2022/12/03 07:34:20;;;;;;;;;11.00;9.50;;;;;20.23;39.93;101690.09;5015772;28;45383;-72
2022/12/03 07:36:46;;;;;;;;;8.25;7.00;;;;;20.22;39.82;101693.72;5015450;28;46853;-72
2022/12/03 07:39:11;;;;;;;;;11.25;9.75;;;;;20.22;39.88;101685.78;5015291;28;45321;-72
2022/12/03 07:41:37;;;;;;;;;8.75;8.50;;;;;20.22;39.88;101685.78;5015289;28;45315;-72
2022/12/03 07:44:02;;;;;;;;;11.25;11.25;;;;;20.15;39.68;101680.25;5015546;28;45306;-72
2022/12/03 07:46:27;;;;;;;;;11.00;9.00;;;;;20.23;39.78;101681.34;5015372;28;45389;-72
2022/12/03 07:48:53;;;;;;;;;11.50;10.00;;;;;20.22;39.87;101684.97;5015444;28;45372;-72
2022/12/03 07:51:18;;;;;;;;;11.00;11.00;;;;;20.12;39.82;101683.19;5015619;28;45427;-72
2022/12/03 07:53:43;;;;;;;;;10.00;10.00;;;;;20.18;39.85;101684.41;5015203;28;45521;-72
2022/12/03 07:56:09;;;;;;;;;11.00;9.75;;;;;20.19;39.77;101678.16;5014991;28;46289;-72
2022/12/03 07:58:35;;;;;;;;;10.00;8.50;;;;;20.20;39.71;101692.19;5016677;28;45378;-72
2022/12/03 08:01:00;;;;;;;;;13.50;11.25;;;;;20.20;39.89;101686.91;5018655;28;45460;-72
2022/12/03 08:03:25;;;;;;;;;13.00;10.50;;;;;20.10;39.70;101676.34;5018801;28;45431;-72
2022/12/03 08:05:51;;;;;;;;;16.50;10.50;;;;;20.20;39.89;101694.84;5018686;28;45332;-72
2022/12/03 08:08:16;;;;;;;;;10.75;8.00;;;;;20.17;39.67;101688.03;5018577;28;46162;-72
2022/12/03 08:10:41;;;;;;;;;10.50;10.50;;;;;20.18;39.81;101690.53;5018428;28;45346;-73
2022/12/03 08:13:13;;;;;;;;;12.25;10.75;;;;;20.20;39.87;101692.19;5018782;28;45244;-73
2022/12/03 08:15:39;;;;;;;;;12.00;11.00;;;;;20.05;39.80;101663.59;5018515;28;46239;-72
2022/12/03 08:18:26;;;;;;;;;14.50;10.75;;;;;20.18;39.73;101690.53;5018323;28;45353;-72
2022/12/03 08:20:52;;;;;;;;;12.00;10.25;;;;;20.17;39.87;101688.88;5018559;28;45411;-72
2022/12/03 08:23:20;;;;;;;;;12.00;10.25;;;;;20.12;39.60;101685.00;5018426;28;45419;-73
2022/12/03 08:25:47;;;;;;;;;12.75;11.50;;;;;20.16;39.91;101687.22;5018033;28;46253;-72
2022/12/03 08:28:19;;;;;;;;;12.00;10.00;;;;;20.17;39.33;101688.88;5018292;28;45521;-72
2022/12/03 08:31:24;;;;;;;;;20.00;12.00;;;;;20.17;39.82;101688.88;5018446;28;45379;-73
2022/12/03 08:33:53;;;;;;;;;7.75;6.00;;;;;20.16;39.72;101684.59;5018325;28;45325;-73
2022/12/03 08:36:29;;;;;;;;;13.50;11.25;;;;;20.16;39.81;101691.66;5018134;28;45371;-73
2022/12/03 08:39:22;;;;;;;;;10.25;9.75;;;;;20.12;39.89;101685.84;5017589;28;45429;-73
2022/12/03 08:44:39;;;;;;;;;12.00;11.00;;;;;20.16;40.02;101675.81;5018285;28;45339;-72
2022/12/03 08:47:08;;;;;;;;;12.25;10.00;;;;;20.16;39.84;101683.75;5018008;28;46082;-73
2022/12/03 08:49:33;;;;;;;;;10.75;10.25;;;;;20.16;39.74;101683.75;5017965;28;45446;-71
2022/12/03 08:52:08;;;;;;;;;13.25;12.00;;;;;20.17;39.59;101685.38;5017984;28;45406;-72
2022/12/03 08:54:34;;;;;;;;;12.00;10.00;;;;;20.17;39.57;101683.59;5017701;28;45425;-72
2022/12/03 08:57:05;;;;;;;;;15.00;12.00;;;;;20.18;39.59;101681.78;5017687;28;48010;-71
2022/12/03 08:59:31;;;;;;;;;11.00;8.75;;;;;20.19;39.67;101680.81;5017642;28;45486;-72
2022/12/03 09:01:58;;;;;;;;;11.00;9.50;;;;;20.18;39.73;101671.22;5017975;28;45296;-72
2022/12/03 09:04:23;;;;;;;;;11.50;9.00;;;;;20.19;39.76;101675.53;5018004;28;45371;-73
2022/12/03 09:06:49;;;;;;;;;10.50;10.50;;;;;20.18;39.63;101672.06;5017588;28;46158;-72
2022/12/03 09:09:15;;;;;;;;;10.25;10.00;;;;;20.21;39.66;101673.56;5016877;28;45300;-72
2022/12/03 09:11:42;;;;;;;;;11.50;10.25;;;;;20.16;39.49;101665.25;5017727;28;45299;-72
2022/12/03 09:14:07;;;;;;;;;10.25;9.25;;;;;20.22;39.50;101687.63;5017782;28;45303;-72
2022/12/03 09:16:32;;;;;;;;;11.25;10.00;;;;;20.22;39.64;101679.69;5017535;28;46132;-72
2022/12/03 09:18:58;;;;;;;;;14.25;11.75;;;;;20.22;39.33;101684.97;5017551;28;45237;-72
2022/12/03 09:21:23;;;;;;;;;10.00;10.00;;;;;20.21;39.56;101675.38;5017629;28;45340;-72
2022/12/03 09:23:48;;;;;;;;;10.00;10.00;;;;;20.21;39.37;101684.13;5017347;28;45340;-72
2022/12/03 09:26:14;;;;;;;;;12.50;9.75;;;;;20.20;39.52;101674.53;5017509;28;45366;-72
2022/12/03 09:28:39;;;;;;;;;12.50;10.75;;;;;20.20;39.44;101676.34;5017311;28;45319;-72
2022/12/03 09:31:04;;;;;;;;;12.00;10.75;;;;;20.20;39.46;101681.63;5017762;28;45582;-72
2022/12/03 09:33:31;;;;;;;;;10.25;8.50;;;;;20.20;39.60;101678.97;5017484;28;45240;-72
2022/12/03 09:35:57;;;;;;;;;11.25;10.00;;;;;20.20;39.54;101677.19;5017274;28;47071;-72
2022/12/03 09:38:22;;;;;;;;;12.25;11.00;;;;;20.19;39.64;101670.25;5016725;28;45542;-72
2022/12/03 09:40:47;;;;;;;;;13.25;12.25;;;;;20.16;39.73;101666.09;5017075;28;45462;-72
2022/12/03 09:43:13;;;;;;;;;12.75;12.00;;;;;20.18;39.83;101671.22;5017421;28;45405;-72
2022/12/03 09:45:38;;;;;;;;;14.50;10.50;;;;;20.15;39.63;101672.34;5017240;28;45333;-72
2022/12/03 09:48:04;;;;;;;;;10.00;9.50;;;;;20.18;39.63;101661.47;5017301;28;45339;-72
2022/12/03 09:50:30;;;;;;;;;8.50;8.50;;;;;20.18;39.53;101668.56;5017531;28;45330;-72
2022/12/03 09:52:58;;;;;;;;;15.00;12.00;;;;;20.14;39.63;101657.44;5016869;28;45411;-72
2022/12/03 09:55:27;;;;;;;;;11.25;10.00;;;;;20.09;39.78;101650.94;5016857;28;45501;-73
2022/12/03 09:57:53;;;;;;;;;9.00;8.50;;;;;20.16;39.55;101663.44;5016859;28;45474;-71
2022/12/03 10:00:24;;;;;;;;;13.25;10.00;;;;;20.16;39.64;101655.53;5016781;28;45356;-73
2022/12/03 10:02:53;;;;;;;;;12.00;9.00;;;;;20.16;39.79;101652.88;5016883;28;45393;-72
2022/12/03 10:05:20;;;;;;;;;11.50;8.50;;;;;20.06;39.62;101636.22;5016803;28;45324;-72
2022/12/03 10:07:46;;;;;;;;;15.50;11.50;;;;;20.16;39.64;101647.59;5016327;28;45417;-72
2022/12/03 10:10:18;;;;;;;;;12.25;11.00;;;;;20.16;39.73;101652.03;5016900;28;45335;-72
2022/12/03 10:12:44;;;;;;;;;10.00;9.00;;;;;20.16;39.84;101649.41;5016787;28;45363;-72
2022/12/03 10:15:16;;;;;;;;;14.50;10.75;;;;;20.15;39.84;101639.78;5016679;28;46153;-72
2022/12/03 10:17:41;;;;;;;;;11.25;8.50;;;;;20.16;39.33;101638.81;5016583;28;45355;-72
2022/12/03 10:20:11;;;;;;;;;11.00;9.25;;;;;20.04;39.59;101625.78;4998700;28;45299;-72
2022/12/03 10:22:36;;;;;;;;;10.25;10.25;;;;;20.16;39.86;101638.81;5015963;28;45483;-72
2022/12/03 10:25:13;;;;;;;;;11.75;10.50;;;;;20.12;39.60;101629.50;5015788;28;46086;-72
2022/12/03 10:27:40;;;;;;;;;14.25;10.00;;;;;20.13;39.72;101637.31;5016398;28;45315;-72
2022/12/03 10:30:25;;;;;;;;;12.25;9.00;;;;;20.16;39.64;101637.03;5016602;28;45488;-72
2022/12/03 10:32:50;;;;;;;;;9.25;9.25;;;;;20.16;39.73;101639.66;5016442;28;45458;-72
2022/12/03 10:35:37;;;;;;;;;10.00;9.00;;;;;20.16;39.45;101631.75;5016002;28;45423;-72
2022/12/03 10:38:05;;;;;;;;;9.25;8.25;;;;;20.16;39.53;101634.38;5016291;28;45505;-72
2022/12/03 10:40:35;;;;;;;;;11.50;11.00;;;;;20.17;39.26;101625.44;5016396;28;45392;-72
2022/12/03 10:43:21;;;;;;;;;10.75;9.00;;;;;20.18;39.29;101631.56;5016410;28;45430;-72
2022/12/03 10:46:08;;;;;;;;;10.25;8.25;;;;;20.17;39.46;101628.09;5016273;28;46115;-71
2022/12/03 10:48:33;;;;;;;;;14.00;10.50;;;;;20.18;39.48;101627.13;5016176;28;45497;-72
2022/12/03 10:51:14;;;;;;;;;10.75;9.50;;;;;20.18;39.33;101611.28;5015959;28;45983;-72
2022/12/03 10:53:40;;;;;;;;;10.25;8.00;;;;;20.20;39.61;101620.84;5016082;28;45316;-72
2022/12/03 10:56:10;;;;;;;;;13.50;11.25;;;;;20.18;39.26;101621.00;5015861;28;46977;-72
2022/12/03 10:58:38;;;;;;;;;14.25;10.25;;;;;20.17;39.58;101620.16;5015905;28;45254;-70
2022/12/03 11:01:19;;;;;;;;;14.00;12.75;;;;;20.18;39.55;101613.09;5015883;28;45344;-71
2022/12/03 11:03:45;;;;;;;;;14.00;10.75;;;;;20.16;39.25;101596.56;5015893;28;45373;-74
2022/12/03 11:06:15;;;;;;;;;9.50;8.00;;;;;20.20;39.32;101602.34;5015787;28;46317;-71
2022/12/03 11:08:43;;;;;;;;;12.25;11.00;;;;;20.17;39.62;101591.09;5015929;28;45280;-72
2022/12/03 11:11:18;;;;;;;;;12.25;10.50;;;;;20.18;39.49;101586.66;5016104;28;45379;-71
2022/12/03 11:13:55;;;;;;;;;11.75;9.00;;;;;20.17;39.69;101585.81;5015977;28;45470;-73
2022/12/03 11:16:38;;;;;;;;;10.00;10.00;;;;;20.17;39.48;101572.63;5009232;28;46154;-70
2022/12/03 11:19:14;;;;;;;;;11.00;10.75;;;;;20.13;39.51;101573.06;5012654;28;45369;-76
2022/12/03 11:22:04;;;;;;;;;9.50;9.00;;;;;20.17;39.27;101563.84;5015132;28;45368;-74
2022/12/03 11:24:35;;;;;;;;;12.25;10.00;;;;;20.10;38.28;101560.94;4997746;28;45377;-73
2022/12/03 11:27:00;;;;;;;;;13.25;10.00;;;;;20.13;39.02;101576.53;5011789;28;47264;-75
2022/12/03 11:29:44;;;;;;;;;10.25;7.50;;;;;20.14;39.16;101566.81;5005851;28;45398;-74
2022/12/03 11:32:10;;;;;;;;;10.50;9.00;;;;;20.13;39.20;101560.69;5015562;28;45378;-75
2022/12/03 11:34:35;;;;;;;;;9.00;6.75;;;;;20.14;39.73;101564.97;5014849;28;45342;-75
2022/12/03 11:37:09;;;;;;;;;10.00;8.25;;;;;20.16;39.55;101556.91;5014369;28;47040;-75
2022/12/03 11:39:43;;;;;;;;;11.50;9.50;;;;;20.16;39.75;101555.13;5014371;28;45294;-75